KNEL/NEL METAR and TAF weather

Enter ICAO airport designator
Station Type Date Time Source
KNEL METAR 2021/08/01 16:00 UTC NOAA

KNEL 011600Z AUTO 17008KT 10SM SCT033 OVC095 24/16 A2991 RMK AO2 SLP125 T02440161


Station Type Date Time Source
KNEL Decoded METAR 2021/08/01 16:00 UTC NOAA

Lakehurst Naval Air Station, NJ, United States (KNEL) 40-02N 074-19W 24M
Aug 01, 2021 - 12:00 PM EDT / 2021.08.01 1600 UTC
Wind: from the S (170 degrees) at 9 MPH (8 KT):0
Visibility: 10 mile(s):0
Sky conditions: overcast
Temperature: 75.9 F (24.4 C)
Dew Point: 61.0 F (16.1 C)
Relative Humidity: 59%
Pressure (altimeter): 29.91 in. Hg (1012 hPa)
ob: KNEL 011600Z AUTO 17008KT 10SM SCT033 OVC095 24/16 A2991 RMK AO2 SLP125 T02440161
cycle: 16

Station Type Date Time Source
KNEL TAF UTC NOAA

Error!

Example: see airport list